sensor_id;sensor_type;location;lat;lon;timestamp;pressure;altitude;pressure_sealevel;temperature;humidity
6532;BME280;3299;42.004;24.868;2023-04-16T00:02:05;97714.59;;;12.35;93.18
6532;BME280;3299;42.004;24.868;2023-04-16T00:04:30;97676.47;;;12.16;92.08
6532;BME280;3299;42.004;24.868;2023-04-16T00:06:56;97721.31;;;12.47;91.58
6532;BME280;3299;42.004;24.868;2023-04-16T00:09:21;97699.19;;;12.33;90.81
6532;BME280;3299;42.004;24.868;2023-04-16T00:11:47;97681.03;;;12.43;89.32
6532;BME280;3299;42.004;24.868;2023-04-16T00:14:12;97720.28;;;12.68;89.26
6532;BME280;3299;42.004;24.868;2023-04-16T00:16:37;97729.59;;;12.80;87.59
6532;BME280;3299;42.004;24.868;2023-04-16T00:19:03;97719.88;;;12.82;85.39
6532;BME280;3299;42.004;24.868;2023-04-16T00:21:28;97686.91;;;12.73;84.44
6532;BME280;3299;42.004;24.868;2023-04-16T00:23:55;97674.22;;;12.80;80.90
6532;BME280;3299;42.004;24.868;2023-04-16T00:26:21;97710.47;;;13.00;80.09
6532;BME280;3299;42.004;24.868;2023-04-16T00:28:46;97724.00;;;13.23;77.69
6532;BME280;3299;42.004;24.868;2023-04-16T00:31:12;97683.69;;;13.09;76.88
6532;BME280;3299;42.004;24.868;2023-04-16T00:33:37;97669.75;;;12.91;74.42
6532;BME280;3299;42.004;24.868;2023-04-16T00:36:03;97686.97;;;13.11;74.90
6532;BME280;3299;42.004;24.868;2023-04-16T00:38:28;97652.66;;;13.08;78.49
6532;BME280;3299;42.004;24.868;2023-04-16T00:40:56;97735.03;;;13.53;79.23
6532;BME280;3299;42.004;24.868;2023-04-16T00:43:24;97737.78;;;13.61;79.22
6532;BME280;3299;42.004;24.868;2023-04-16T00:45:51;97654.84;;;13.12;79.68
6532;BME280;3299;42.004;24.868;2023-04-16T00:48:17;97732.41;;;13.63;80.07
6532;BME280;3299;42.004;24.868;2023-04-16T00:50:43;97732.38;;;13.72;80.01
6532;BME280;3299;42.004;24.868;2023-04-16T00:53:08;97689.66;;;13.48;80.06
6532;BME280;3299;42.004;24.868;2023-04-16T00:55:34;97726.28;;;13.64;80.15
6532;BME280;3299;42.004;24.868;2023-04-16T00:57:59;97708.41;;;13.23;82.20
6532;BME280;3299;42.004;24.868;2023-04-16T01:00:25;97666.19;;;12.83;83.34
6532;BME280;3299;42.004;24.868;2023-04-16T01:02:52;97707.97;;;12.80;85.65
6532;BME280;3299;42.004;24.868;2023-04-16T01:05:19;97678.22;;;12.74;85.48
6532;BME280;3299;42.004;24.868;2023-04-16T01:07:44;97726.97;;;12.71;86.79
6532;BME280;3299;42.004;24.868;2023-04-16T01:10:10;97696.84;;;12.40;88.13
6532;BME280;3299;42.004;24.868;2023-04-16T01:12:35;97708.94;;;12.60;87.53
6532;BME280;3299;42.004;24.868;2023-04-16T01:15:01;97651.06;;;12.10;88.68
6532;BME280;3299;42.004;24.868;2023-04-16T01:17:26;97731.75;;;12.66;88.31
6532;BME280;3299;42.004;24.868;2023-04-16T01:19:52;97686.66;;;12.48;87.96
6532;BME280;3299;42.004;24.868;2023-04-16T01:22:17;97678.59;;;12.60;87.36
6532;BME280;3299;42.004;24.868;2023-04-16T01:24:43;97658.66;;;12.51;87.13
6532;BME280;3299;42.004;24.868;2023-04-16T01:27:09;97703.88;;;12.58;89.05
6532;BME280;3299;42.004;24.868;2023-04-16T01:29:34;97725.72;;;12.84;88.27
6532;BME280;3299;42.004;24.868;2023-04-16T01:32:00;97712.34;;;12.70;88.24
6532;BME280;3299;42.004;24.868;2023-04-16T01:34:25;97666.56;;;12.50;87.41
6532;BME280;3299;42.004;24.868;2023-04-16T01:36:51;97647.69;;;12.38;87.01
6532;BME280;3299;42.004;24.868;2023-04-16T01:39:16;97678.47;;;12.62;87.24
6532;BME280;3299;42.004;24.868;2023-04-16T01:41:46;97726.69;;;12.93;87.18
6532;BME280;3299;42.004;24.868;2023-04-16T01:44:12;97721.91;;;12.79;87.43
6532;BME280;3299;42.004;24.868;2023-04-16T01:46:37;97720.88;;;13.00;86.99
6532;BME280;3299;42.004;24.868;2023-04-16T01:49:04;97654.56;;;12.68;85.41
6532;BME280;3299;42.004;24.868;2023-04-16T01:51:31;97730.16;;;13.12;85.03
6532;BME280;3299;42.004;24.868;2023-04-16T01:53:57;97716.59;;;12.90;85.99
6532;BME280;3299;42.004;24.868;2023-04-16T01:56:22;97702.78;;;12.80;86.42
6532;BME280;3299;42.004;24.868;2023-04-16T01:58:48;97680.09;;;12.63;86.79
6532;BME280;3299;42.004;24.868;2023-04-16T02:01:14;97686.06;;;12.44;87.62
6532;BME280;3299;42.004;24.868;2023-04-16T02:03:40;97713.69;;;12.55;86.89
6532;BME280;3299;42.004;24.868;2023-04-16T02:06:05;97680.84;;;12.25;86.18
6532;BME280;3299;42.004;24.868;2023-04-16T02:08:31;97635.19;;;11.94;86.15
6532;BME280;3299;42.004;24.868;2023-04-16T02:10:56;97639.63;;;11.83;87.48
6532;BME280;3299;42.004;24.868;2023-04-16T02:13:22;97695.59;;;12.25;86.34
6532;BME280;3299;42.004;24.868;2023-04-16T02:15:50;97665.84;;;12.29;81.45
6532;BME280;3299;42.004;24.868;2023-04-16T02:18:16;97673.09;;;12.35;82.71
6532;BME280;3299;42.004;24.868;2023-04-16T02:20:42;97702.22;;;12.67;83.03
6532;BME280;3299;42.004;24.868;2023-04-16T02:23:08;97715.34;;;12.75;82.36
6532;BME280;3299;42.004;24.868;2023-04-16T02:25:38;97714.00;;;12.71;82.46
6532;BME280;3299;42.004;24.868;2023-04-16T02:28:06;97714.38;;;12.57;82.61
6532;BME280;3299;42.004;24.868;2023-04-16T02:30:32;97674.56;;;12.28;83.66
6532;BME280;3299;42.004;24.868;2023-04-16T02:32:59;97673.63;;;12.29;83.97
6532;BME280;3299;42.004;24.868;2023-04-16T02:35:26;97703.53;;;12.33;84.58
6532;BME280;3299;42.004;24.868;2023-04-16T02:37:51;97710.69;;;12.50;82.99
6532;BME280;3299;42.004;24.868;2023-04-16T02:40:17;97712.81;;;12.35;84.04
6532;BME280;3299;42.004;24.868;2023-04-16T02:42:42;97650.13;;;11.72;84.96
6532;BME280;3299;42.004;24.868;2023-04-16T02:45:08;97724.69;;;12.28;85.28
6532;BME280;3299;42.004;24.868;2023-04-16T02:47:34;97677.22;;;11.98;84.84
6532;BME280;3299;42.004;24.868;2023-04-16T02:49:59;97678.28;;;11.86;86.05
6532;BME280;3299;42.004;24.868;2023-04-16T02:52:25;97733.28;;;12.29;85.52
6532;BME280;3299;42.004;24.868;2023-04-16T02:54:50;97711.97;;;12.25;85.61
6532;BME280;3299;42.004;24.868;2023-04-16T02:57:15;97662.78;;;12.05;85.11
6532;BME280;3299;42.004;24.868;2023-04-16T02:59:41;97739.91;;;12.61;84.77
6532;BME280;3299;42.004;24.868;2023-04-16T03:02:06;97739.78;;;12.72;83.14
6532;BME280;3299;42.004;24.868;2023-04-16T03:04:32;97706.88;;;12.54;82.59
6532;BME280;3299;42.004;24.868;2023-04-16T03:06:57;97676.63;;;12.34;83.41
6532;BME280;3299;42.004;24.868;2023-04-16T03:09:22;97687.28;;;12.31;83.70
6532;BME280;3299;42.004;24.868;2023-04-16T03:11:48;97738.28;;;12.60;84.12
6532;BME280;3299;42.004;24.868;2023-04-16T03:14:13;97723.78;;;12.48;84.32
6532;BME280;3299;42.004;24.868;2023-04-16T03:16:39;97695.28;;;12.09;84.89
6532;BME280;3299;42.004;24.868;2023-04-16T03:19:04;97743.34;;;12.13;86.26
6532;BME280;3299;42.004;24.868;2023-04-16T03:21:30;97756.09;;;12.35;84.29
6532;BME280;3299;42.004;24.868;2023-04-16T03:23:55;97749.72;;;12.48;81.99
6532;BME280;3299;42.004;24.868;2023-04-16T03:26:21;97704.09;;;12.36;80.39
6532;BME280;3299;42.004;24.868;2023-04-16T03:28:46;97696.84;;;12.30;80.11
6532;BME280;3299;42.004;24.868;2023-04-16T03:31:12;97751.13;;;12.62;82.03
6532;BME280;3299;42.004;24.868;2023-04-16T03:33:37;97671.25;;;12.07;83.63
6532;BME280;3299;42.004;24.868;2023-04-16T03:36:03;97698.03;;;12.17;84.09
6532;BME280;3299;42.004;24.868;2023-04-16T03:38:28;97675.22;;;12.11;83.55
6532;BME280;3299;42.004;24.868;2023-04-16T03:40:53;97716.56;;;12.12;85.64
6532;BME280;3299;42.004;24.868;2023-04-16T03:43:19;97681.44;;;11.89;85.86
6532;BME280;3299;42.004;24.868;2023-04-16T03:45:45;97775.63;;;12.29;87.10
6532;BME280;3299;42.004;24.868;2023-04-16T03:48:11;97680.44;;;11.81;86.58
6532;BME280;3299;42.004;24.868;2023-04-16T03:50:36;97713.28;;;12.01;86.75
6532;BME280;3299;42.004;24.868;2023-04-16T03:53:02;97725.00;;;12.05;87.32
6532;BME280;3299;42.004;24.868;2023-04-16T03:55:27;97684.84;;;11.90;87.69
6532;BME280;3299;42.004;24.868;2023-04-16T03:57:53;97676.09;;;11.81;86.25
6532;BME280;3299;42.004;24.868;2023-04-16T04:00:18;97775.13;;;12.45;83.38
6532;BME280;3299;42.004;24.868;2023-04-16T04:02:44;97763.88;;;12.35;83.64
6532;BME280;3299;42.004;24.868;2023-04-16T04:05:10;97685.66;;;11.90;83.41
6532;BME280;3299;42.004;24.868;2023-04-16T04:07:38;97728.91;;;12.20;83.38
6532;BME280;3299;42.004;24.868;2023-04-16T04:10:23;97729.53;;;12.12;84.23
6532;BME280;3299;42.004;24.868;2023-04-16T04:12:49;97757.47;;;12.39;85.46
6532;BME280;3299;42.004;24.868;2023-04-16T04:15:17;97723.16;;;12.16;86.13
6532;BME280;3299;42.004;24.868;2023-04-16T04:17:43;97678.25;;;11.76;88.69
6532;BME280;3299;42.004;24.868;2023-04-16T04:20:11;97759.06;;;12.21;88.88
6532;BME280;3299;42.004;24.868;2023-04-16T04:22:41;97760.06;;;12.39;88.65
6532;BME280;3299;42.004;24.868;2023-04-16T04:25:09;97751.44;;;12.29;88.69
6532;BME280;3299;42.004;24.868;2023-04-16T04:27:35;97765.28;;;12.48;88.21
6532;BME280;3299;42.004;24.868;2023-04-16T04:30:02;97771.75;;;12.54;88.06
6532;BME280;3299;42.004;24.868;2023-04-16T04:32:29;97683.81;;;12.11;85.00
6532;BME280;3299;42.004;24.868;2023-04-16T04:34:55;97784.47;;;12.66;85.78
6532;BME280;3299;42.004;24.868;2023-04-16T04:37:21;97775.44;;;12.61;84.59
6532;BME280;3299;42.004;24.868;2023-04-16T04:39:46;97711.16;;;12.25;83.12
6532;BME280;3299;42.004;24.868;2023-04-16T04:42:11;97710.34;;;12.24;83.37
6532;BME280;3299;42.004;24.868;2023-04-16T04:44:38;97780.66;;;12.70;82.96
6532;BME280;3299;42.004;24.868;2023-04-16T04:47:03;97706.25;;;12.31;82.17
6532;BME280;3299;42.004;24.868;2023-04-16T04:49:29;97732.13;;;12.61;78.00
6532;BME280;3299;42.004;24.868;2023-04-16T04:52:00;97789.78;;;13.14;76.69
6532;BME280;3299;42.004;24.868;2023-04-16T04:54:31;97716.59;;;12.80;76.98
6532;BME280;3299;42.004;24.868;2023-04-16T04:56:58;97708.09;;;12.69;77.15
6532;BME280;3299;42.004;24.868;2023-04-16T04:59:24;97800.28;;;13.12;79.93
6532;BME280;3299;42.004;24.868;2023-04-16T05:01:50;97736.94;;;12.75;81.02
6532;BME280;3299;42.004;24.868;2023-04-16T05:04:16;97724.50;;;12.69;81.88
6532;BME280;3299;42.004;24.868;2023-04-16T05:06:42;97706.75;;;12.65;82.94
6532;BME280;3299;42.004;24.868;2023-04-16T05:09:07;97797.16;;;13.28;83.43
6532;BME280;3299;42.004;24.868;2023-04-16T05:11:37;97705.25;;;12.81;83.89
6532;BME280;3299;42.004;24.868;2023-04-16T05:14:04;97714.41;;;12.95;79.64
6532;BME280;3299;42.004;24.868;2023-04-16T05:16:29;97721.28;;;12.96;77.30
6532;BME280;3299;42.004;24.868;2023-04-16T05:18:55;97798.50;;;13.41;75.98
6532;BME280;3299;42.004;24.868;2023-04-16T05:21:22;97749.31;;;13.11;75.35
6532;BME280;3299;42.004;24.868;2023-04-16T05:23:47;97796.47;;;13.45;75.15
6532;BME280;3299;42.004;24.868;2023-04-16T05:26:12;97771.16;;;13.28;74.36
6532;BME280;3299;42.004;24.868;2023-04-16T05:28:39;97760.22;;;13.34;74.12
6532;BME280;3299;42.004;24.868;2023-04-16T05:31:05;97735.88;;;13.25;74.38
6532;BME280;3299;42.004;24.868;2023-04-16T05:33:30;97746.84;;;13.38;73.95
6532;BME280;3299;42.004;24.868;2023-04-16T05:35:57;97750.63;;;13.53;73.57
6532;BME280;3299;42.004;24.868;2023-04-16T05:38:23;97791.63;;;13.88;72.33
6532;BME280;3299;42.004;24.868;2023-04-16T05:40:48;97792.72;;;13.95;68.72
6532;BME280;3299;42.004;24.868;2023-04-16T05:43:14;97710.84;;;13.53;68.89
6532;BME280;3299;42.004;24.868;2023-04-16T05:45:40;97784.75;;;14.06;69.27
6532;BME280;3299;42.004;24.868;2023-04-16T05:48:09;97795.38;;;14.22;69.63
6532;BME280;3299;42.004;24.868;2023-04-16T05:50:35;97795.78;;;14.27;69.44
6532;BME280;3299;42.004;24.868;2023-04-16T05:53:05;97729.44;;;13.94;69.49
6532;BME280;3299;42.004;24.868;2023-04-16T05:55:30;97772.16;;;14.38;69.20
6532;BME280;3299;42.004;24.868;2023-04-16T05:57:56;97805.44;;;14.71;68.53
6532;BME280;3299;42.004;24.868;2023-04-16T06:00:22;97812.34;;;14.89;67.52
6532;BME280;3299;42.004;24.868;2023-04-16T06:02:47;97721.41;;;14.51;66.66
6532;BME280;3299;42.004;24.868;2023-04-16T06:05:13;97716.00;;;14.62;66.34
6532;BME280;3299;42.004;24.868;2023-04-16T06:07:39;97810.72;;;15.33;66.14
6532;BME280;3299;42.004;24.868;2023-04-16T06:10:05;97752.06;;;15.19;65.38
6532;BME280;3299;42.004;24.868;2023-04-16T06:12:33;97750.34;;;15.28;64.86
6532;BME280;3299;42.004;24.868;2023-04-16T06:15:00;97798.91;;;15.64;64.63
6532;BME280;3299;42.004;24.868;2023-04-16T06:17:26;97801.66;;;15.80;64.07
6532;BME280;3299;42.004;24.868;2023-04-16T06:19:51;97758.31;;;15.61;63.58
6532;BME280;3299;42.004;24.868;2023-04-16T06:22:18;97760.44;;;15.66;63.80
6532;BME280;3299;42.004;24.868;2023-04-16T06:24:47;97801.69;;;15.88;64.50
6532;BME280;3299;42.004;24.868;2023-04-16T06:27:12;97747.03;;;15.61;64.29
6532;BME280;3299;42.004;24.868;2023-04-16T06:29:38;97796.22;;;15.99;64.16
6532;BME280;3299;42.004;24.868;2023-04-16T06:32:03;97736.69;;;15.69;63.63
6532;BME280;3299;42.004;24.868;2023-04-16T06:34:30;97748.50;;;15.81;63.71
6532;BME280;3299;42.004;24.868;2023-04-16T06:36:55;97720.69;;;15.64;63.64
6532;BME280;3299;42.004;24.868;2023-04-16T06:39:21;97718.78;;;15.74;63.00
6532;BME280;3299;42.004;24.868;2023-04-16T06:41:49;97788.19;;;16.18;63.31
6532;BME280;3299;42.004;24.868;2023-04-16T06:44:16;97718.97;;;15.80;63.60
6532;BME280;3299;42.004;24.868;2023-04-16T06:46:42;97801.47;;;16.32;63.65
6532;BME280;3299;42.004;24.868;2023-04-16T06:49:09;97746.69;;;16.07;63.44
6532;BME280;3299;42.004;24.868;2023-04-16T06:51:35;97731.28;;;15.96;63.17
6532;BME280;3299;42.004;24.868;2023-04-16T06:54:03;97792.03;;;16.31;63.11
6532;BME280;3299;42.004;24.868;2023-04-16T06:56:29;97724.81;;;16.00;63.26
6532;BME280;3299;42.004;24.868;2023-04-16T06:58:56;97740.50;;;16.08;63.40
6532;BME280;3299;42.004;24.868;2023-04-16T07:01:23;97725.47;;;16.02;63.17
6532;BME280;3299;42.004;24.868;2023-04-16T07:03:48;97681.31;;;15.75;63.31
6532;BME280;3299;42.004;24.868;2023-04-16T07:06:15;97798.28;;;16.38;63.95
6532;BME280;3299;42.004;24.868;2023-04-16T07:08:41;97721.44;;;15.82;63.96
6532;BME280;3299;42.004;24.868;2023-04-16T07:11:06;97788.91;;;16.28;63.77
6532;BME280;3299;42.004;24.868;2023-04-16T07:13:32;97731.28;;;15.96;63.48
6532;BME280;3299;42.004;24.868;2023-04-16T07:15:57;97748.66;;;16.05;64.16
6532;BME280;3299;42.004;24.868;2023-04-16T07:18:22;97793.50;;;16.34;64.28
6532;BME280;3299;42.004;24.868;2023-04-16T07:20:48;97806.56;;;16.34;64.42
6532;BME280;3299;42.004;24.868;2023-04-16T07:23:13;97764.66;;;16.10;64.22
6532;BME280;3299;42.004;24.868;2023-04-16T07:25:38;97731.59;;;15.85;64.71
6532;BME280;3299;42.004;24.868;2023-04-16T07:28:05;97756.59;;;15.95;64.99
6532;BME280;3299;42.004;24.868;2023-04-16T07:30:31;97768.88;;;16.03;65.98
6532;BME280;3299;42.004;24.868;2023-04-16T07:33:02;97756.09;;;15.92;66.75
6532;BME280;3299;42.004;24.868;2023-04-16T07:35:28;97797.84;;;16.17;67.70
6532;BME280;3299;42.004;24.868;2023-04-16T07:37:53;97739.91;;;15.63;68.47
6532;BME280;3299;42.004;24.868;2023-04-16T07:40:19;97805.66;;;15.74;70.60
6532;BME280;3299;42.004;24.868;2023-04-16T07:42:44;97769.34;;;15.38;72.14
6532;BME280;3299;42.004;24.868;2023-04-16T07:45:10;97787.75;;;15.54;72.60
6532;BME280;3299;42.004;24.868;2023-04-16T07:47:35;97796.06;;;15.57;70.83
6532;BME280;3299;42.004;24.868;2023-04-16T07:50:00;97802.41;;;15.55;70.92
6532;BME280;3299;42.004;24.868;2023-04-16T07:52:26;97712.16;;;15.01;72.28
6532;BME280;3299;42.004;24.868;2023-04-16T07:54:51;97745.44;;;15.25;71.72
6532;BME280;3299;42.004;24.868;2023-04-16T07:57:17;97772.28;;;15.35;72.62
6532;BME280;3299;42.004;24.868;2023-04-16T07:59:42;97719.53;;;15.06;72.82
6532;BME280;3299;42.004;24.868;2023-04-16T08:02:11;97798.16;;;15.54;71.82
6532;BME280;3299;42.004;24.868;2023-04-16T08:04:38;97744.78;;;15.23;72.21
6532;BME280;3299;42.004;24.868;2023-04-16T08:07:03;97737.56;;;15.17;72.65
6532;BME280;3299;42.004;24.868;2023-04-16T08:09:29;97762.81;;;15.34;71.36
6532;BME280;3299;42.004;24.868;2023-04-16T08:11:55;97778.56;;;15.50;71.33
6532;BME280;3299;42.004;24.868;2023-04-16T08:14:23;97796.06;;;15.75;70.95
6532;BME280;3299;42.004;24.868;2023-04-16T08:16:48;97789.91;;;15.84;70.38
6532;BME280;3299;42.004;24.868;2023-04-16T08:19:14;97790.34;;;15.97;70.13
6532;BME280;3299;42.004;24.868;2023-04-16T08:21:39;97791.22;;;16.05;69.00
6532;BME280;3299;42.004;24.868;2023-04-16T08:24:06;97786.97;;;16.04;67.71
6532;BME280;3299;42.004;24.868;2023-04-16T08:26:32;97773.25;;;16.02;66.81
6532;BME280;3299;42.004;24.868;2023-04-16T08:28:58;97719.34;;;15.85;66.76
6532;BME280;3299;42.004;24.868;2023-04-16T08:31:24;97781.63;;;16.14;68.24
6532;BME280;3299;42.004;24.868;2023-04-16T08:33:49;97708.66;;;15.71;68.51
6532;BME280;3299;42.004;24.868;2023-04-16T08:36:15;97715.22;;;15.75;68.72
6532;BME280;3299;42.004;24.868;2023-04-16T08:38:40;97791.31;;;16.21;68.24
6532;BME280;3299;42.004;24.868;2023-04-16T08:41:08;97749.38;;;16.15;68.21
6532;BME280;3299;42.004;24.868;2023-04-16T08:43:37;97768.50;;;16.23;67.07
6532;BME280;3299;42.004;24.868;2023-04-16T08:46:04;97732.56;;;16.17;67.71
6532;BME280;3299;42.004;24.868;2023-04-16T08:48:32;97732.41;;;16.19;67.60
6532;BME280;3299;42.004;24.868;2023-04-16T08:50:59;97759.94;;;16.39;67.71
6532;BME280;3299;42.004;24.868;2023-04-16T08:53:33;97766.53;;;16.59;67.78
6532;BME280;3299;42.004;24.868;2023-04-16T08:56:03;97730.16;;;16.65;67.45
6532;BME280;3299;42.004;24.868;2023-04-16T08:58:30;97744.91;;;16.90;67.05
6532;BME280;3299;42.004;24.868;2023-04-16T09:01:02;97687.25;;;16.68;66.63
6532;BME280;3299;42.004;24.868;2023-04-16T09:03:29;97727.78;;;17.12;66.02
6532;BME280;3299;42.004;24.868;2023-04-16T09:05:58;97688.25;;;17.07;65.24
6532;BME280;3299;42.004;24.868;2023-04-16T09:08:28;97715.88;;;17.17;64.68
6532;BME280;3299;42.004;24.868;2023-04-16T09:10:54;97721.44;;;17.30;63.95
6532;BME280;3299;42.004;24.868;2023-04-16T09:13:21;97736.66;;;17.59;63.66
6532;BME280;3299;42.004;24.868;2023-04-16T09:15:51;97729.97;;;17.64;62.73
6532;BME280;3299;42.004;24.868;2023-04-16T09:18:20;97736.16;;;17.79;62.63
6532;BME280;3299;42.004;24.868;2023-04-16T09:20:47;97670.97;;;17.54;61.88
6532;BME280;3299;42.004;24.868;2023-04-16T09:23:12;97692.00;;;17.76;61.34
6532;BME280;3299;42.004;24.868;2023-04-16T09:25:38;97734.09;;;18.13;60.36
6532;BME280;3299;42.004;24.868;2023-04-16T09:28:04;97727.88;;;18.22;59.10
6532;BME280;3299;42.004;24.868;2023-04-16T09:30:29;97707.44;;;18.18;58.98
6532;BME280;3299;42.004;24.868;2023-04-16T09:33:17;97734.69;;;18.47;59.30
6532;BME280;3299;42.004;24.868;2023-04-16T09:35:48;97658.91;;;17.99;59.57
6532;BME280;3299;42.004;24.868;2023-04-16T09:38:14;97712.94;;;18.31;58.96
6532;BME280;3299;42.004;24.868;2023-04-16T09:40:40;97697.28;;;18.15;60.12
6532;BME280;3299;42.004;24.868;2023-04-16T09:43:14;97660.06;;;17.97;60.92
6532;BME280;3299;42.004;24.868;2023-04-16T09:45:50;97689.91;;;18.26;60.64
6532;BME280;3299;42.004;24.868;2023-04-16T09:48:27;97651.97;;;17.68;59.82
6532;BME280;3299;42.004;24.868;2023-04-16T09:50:53;97661.25;;;17.86;60.92
6532;BME280;3299;42.004;24.868;2023-04-16T09:53:29;97688.91;;;18.19;60.96
6532;BME280;3299;42.004;24.868;2023-04-16T09:55:57;97693.69;;;18.16;60.07
6532;BME280;3299;42.004;24.868;2023-04-16T09:58:23;97712.63;;;18.34;60.60
6532;BME280;3299;42.004;24.868;2023-04-16T10:00:54;97639.84;;;17.75;60.49
6532;BME280;3299;42.004;24.868;2023-04-16T10:03:32;97675.25;;;18.01;60.68
6532;BME280;3299;42.004;24.868;2023-04-16T10:06:18;97713.09;;;18.37;60.90
6532;BME280;3299;42.004;24.868;2023-04-16T10:08:47;97716.78;;;18.59;60.03
6532;BME280;3299;42.004;24.868;2023-04-16T10:11:17;97708.19;;;18.73;59.39
6532;BME280;3299;42.004;24.868;2023-04-16T10:13:43;97658.53;;;18.49;58.49
6532;BME280;3299;42.004;24.868;2023-04-16T10:16:09;97645.59;;;18.47;58.70
6532;BME280;3299;42.004;24.868;2023-04-16T10:18:43;97708.97;;;19.04;58.61
6532;BME280;3299;42.004;24.868;2023-04-16T10:21:11;97706.19;;;19.28;57.54
6532;BME280;3299;42.004;24.868;2023-04-16T10:23:40;97631.38;;;18.95;56.80
6532;BME280;3299;42.004;24.868;2023-04-16T10:26:06;97646.91;;;19.19;55.97
6532;BME280;3299;42.004;24.868;2023-04-16T10:28:33;97702.41;;;19.67;55.28
6532;BME280;3299;42.004;24.868;2023-04-16T10:31:21;97692.81;;;19.74;55.47
6532;BME280;3299;42.004;24.868;2023-04-16T10:33:49;97663.78;;;19.76;55.40
6532;BME280;3299;42.004;24.868;2023-04-16T10:36:22;97630.41;;;19.47;54.76
6532;BME280;3299;42.004;24.868;2023-04-16T10:38:49;97704.88;;;19.98;55.28
6532;BME280;3299;42.004;24.868;2023-04-16T10:41:15;97710.16;;;20.12;54.58
6532;BME280;3299;42.004;24.868;2023-04-16T10:43:48;97699.00;;;19.96;54.91
6532;BME280;3299;42.004;24.868;2023-04-16T10:46:24;97706.53;;;19.99;55.86
6532;BME280;3299;42.004;24.868;2023-04-16T10:48:54;97703.53;;;20.31;54.38
6532;BME280;3299;42.004;24.868;2023-04-16T10:51:33;97628.81;;;20.04;54.30
6532;BME280;3299;42.004;24.868;2023-04-16T10:56:43;97649.28;;;20.23;53.43
6532;BME280;3299;42.004;24.868;2023-04-16T10:59:10;97652.25;;;20.35;53.60
6532;BME280;3299;42.004;24.868;2023-04-16T11:01:42;97687.72;;;20.60;53.97
6532;BME280;3299;42.004;24.868;2023-04-16T11:14:51;97654.81;;;20.14;56.36
6532;BME280;3299;42.004;24.868;2023-04-16T11:17:18;97682.53;;;20.31;56.20
6532;BME280;3299;42.004;24.868;2023-04-16T11:19:45;97646.47;;;19.96;57.55
6532;BME280;3299;42.004;24.868;2023-04-16T11:22:13;97682.66;;;19.71;59.37
6532;BME280;3299;42.004;24.868;2023-04-16T11:24:39;97614.03;;;19.31;59.69
6532;BME280;3299;42.004;24.868;2023-04-16T11:27:06;97603.72;;;19.44;59.29
6532;BME280;3299;42.004;24.868;2023-04-16T11:29:33;97662.31;;;19.88;59.51
6532;BME280;3299;42.004;24.868;2023-04-16T11:31:59;97634.44;;;19.87;58.75
6532;BME280;3299;42.004;24.868;2023-04-16T11:34:24;97670.22;;;20.17;58.63
6532;BME280;3299;42.004;24.868;2023-04-16T11:36:51;97624.72;;;20.02;58.41
6532;BME280;3299;42.004;24.868;2023-04-16T11:39:17;97617.16;;;20.07;58.80
6532;BME280;3299;42.004;24.868;2023-04-16T11:41:50;97616.88;;;20.16;59.20
6532;BME280;3299;42.004;24.868;2023-04-16T11:44:21;97647.16;;;20.48;57.74
6532;BME280;3299;42.004;24.868;2023-04-16T11:46:47;97609.41;;;20.34;57.53
6532;BME280;3299;42.004;24.868;2023-04-16T11:49:13;97602.81;;;20.24;57.78
6532;BME280;3299;42.004;24.868;2023-04-16T11:51:42;97587.41;;;20.21;58.17
6532;BME280;3299;42.004;24.868;2023-04-16T11:54:08;97618.38;;;20.40;58.27
6532;BME280;3299;42.004;24.868;2023-04-16T11:56:35;97560.44;;;19.98;58.30
6532;BME280;3299;42.004;24.868;2023-04-16T11:59:08;97623.97;;;20.37;58.37
6532;BME280;3299;42.004;24.868;2023-04-16T12:01:35;97586.53;;;20.14;58.16
6532;BME280;3299;42.004;24.868;2023-04-16T12:04:01;97618.38;;;20.40;57.76
6532;BME280;3299;42.004;24.868;2023-04-16T12:06:27;97543.00;;;19.90;58.03
6532;BME280;3299;42.004;24.868;2023-04-16T12:08:53;97542.28;;;19.82;58.69
6532;BME280;3299;42.004;24.868;2023-04-16T12:11:19;97581.34;;;20.06;59.50
6532;BME280;3299;42.004;24.868;2023-04-16T12:14:10;97613.41;;;20.30;59.73
6532;BME280;3299;42.004;24.868;2023-04-16T12:16:36;97600.19;;;20.24;60.10
6532;BME280;3299;42.004;24.868;2023-04-16T12:19:02;97570.31;;;20.10;60.02
6532;BME280;3299;42.004;24.868;2023-04-16T12:21:44;97558.06;;;20.03;61.65
6532;BME280;3299;42.004;24.868;2023-04-16T12:24:13;97604.56;;;20.17;62.72
6532;BME280;3299;42.004;24.868;2023-04-16T12:29:23;97597.44;;;20.32;62.12
6532;BME280;3299;42.004;24.868;2023-04-16T12:31:50;97561.59;;;20.24;61.76
6532;BME280;3299;42.004;24.868;2023-04-16T12:34:17;97580.56;;;20.62;61.68
6532;BME280;3299;42.004;24.868;2023-04-16T12:36:44;97561.13;;;20.98;59.26
6532;BME280;3299;42.004;24.868;2023-04-16T12:39:10;97582.59;;;21.57;57.90
6532;BME280;3299;42.004;24.868;2023-04-16T12:41:38;97540.56;;;21.70;54.76
6532;BME280;3299;42.004;24.868;2023-04-16T12:46:40;97585.50;;;22.62;51.30
6532;BME280;3299;42.004;24.868;2023-04-16T12:49:07;97570.94;;;22.99;49.80
6532;BME280;3299;42.004;24.868;2023-04-16T12:51:33;97552.47;;;22.92;48.88
6532;BME280;3299;42.004;24.868;2023-04-16T12:54:00;97584.34;;;22.91;48.11
6532;BME280;3299;42.004;24.868;2023-04-16T12:56:27;97584.91;;;22.73;48.29
6532;BME280;3299;42.004;24.868;2023-04-16T12:58:53;97546.25;;;22.27;46.60
6532;BME280;3299;42.004;24.868;2023-04-16T13:01:19;97557.91;;;22.52;47.31
6532;BME280;3299;42.004;24.868;2023-04-16T13:03:45;97527.84;;;22.40;47.21
6532;BME280;3299;42.004;24.868;2023-04-16T13:06:12;97568.09;;;23.00;45.77
6532;BME280;3299;42.004;24.868;2023-04-16T13:08:38;97570.94;;;23.38;43.90
6532;BME280;3299;42.004;24.868;2023-04-16T13:11:04;97570.06;;;23.69;43.28
6532;BME280;3299;42.004;24.868;2023-04-16T13:13:30;97535.47;;;23.91;42.21
6532;BME280;3299;42.004;24.868;2023-04-16T13:15:56;97568.75;;;24.04;41.17
6532;BME280;3299;42.004;24.868;2023-04-16T13:18:21;97567.63;;;23.88;41.68
6532;BME280;3299;42.004;24.868;2023-04-16T13:20:47;97531.94;;;23.40;42.32
6532;BME280;3299;42.004;24.868;2023-04-16T13:23:13;97506.78;;;23.31;42.63
6532;BME280;3299;42.004;24.868;2023-04-16T13:25:38;97532.72;;;23.47;42.67
6532;BME280;3299;42.004;24.868;2023-04-16T13:28:04;97553.69;;;23.29;43.76